sensor_id;sensor_type;location;lat;lon;timestamp;P1;durP1;ratioP1;P2;durP2;ratioP2
317;SDS011;146;53.448;10.228;2024-02-23T00:00:17;4.10;;;1.37;;
317;SDS011;146;53.448;10.228;2024-02-23T00:03:05;1.67;;;1.57;;
317;SDS011;146;53.448;10.228;2024-02-23T00:05:53;3.30;;;1.50;;
317;SDS011;146;53.448;10.228;2024-02-23T00:08:41;1.50;;;1.40;;
317;SDS011;146;53.448;10.228;2024-02-23T00:11:28;1.10;;;1.10;;
317;SDS011;146;53.448;10.228;2024-02-23T00:14:17;1.10;;;1.00;;
317;SDS011;146;53.448;10.228;2024-02-23T00:17:05;3.37;;;1.17;;
317;SDS011;146;53.448;10.228;2024-02-23T00:19:52;1.53;;;1.03;;
317;SDS011;146;53.448;10.228;2024-02-23T00:22:39;0.80;;;0.80;;
317;SDS011;146;53.448;10.228;2024-02-23T00:25:27;0.70;;;0.70;;
317;SDS011;146;53.448;10.228;2024-02-23T00:28:14;2.63;;;1.03;;
317;SDS011;146;53.448;10.228;2024-02-23T00:31:02;1.23;;;1.03;;
317;SDS011;146;53.448;10.228;2024-02-23T00:33:50;0.73;;;0.70;;
317;SDS011;146;53.448;10.228;2024-02-23T00:43:57;1.57;;;1.00;;
317;SDS011;146;53.448;10.228;2024-02-23T00:46:48;2.23;;;1.10;;
317;SDS011;146;53.448;10.228;2024-02-23T00:49:35;0.90;;;0.90;;
317;SDS011;146;53.448;10.228;2024-02-23T00:52:22;5.77;;;1.40;;
317;SDS011;146;53.448;10.228;2024-02-23T00:55:09;0.90;;;0.90;;
317;SDS011;146;53.448;10.228;2024-02-23T00:57:56;1.33;;;1.07;;
317;SDS011;146;53.448;10.228;2024-02-23T01:00:44;0.93;;;0.93;;
317;SDS011;146;53.448;10.228;2024-02-23T01:03:33;1.40;;;1.30;;
317;SDS011;146;53.448;10.228;2024-02-23T01:06:20;2.40;;;1.30;;
317;SDS011;146;53.448;10.228;2024-02-23T01:09:07;1.77;;;1.40;;
317;SDS011;146;53.448;10.228;2024-02-23T01:11:54;2.27;;;1.37;;
317;SDS011;146;53.448;10.228;2024-02-23T01:14:41;1.10;;;1.00;;
317;SDS011;146;53.448;10.228;2024-02-23T01:17:28;1.27;;;1.03;;
317;SDS011;146;53.448;10.228;2024-02-23T01:20:17;3.57;;;1.20;;
317;SDS011;146;53.448;10.228;2024-02-23T01:23:04;0.77;;;0.70;;
317;SDS011;146;53.448;10.228;2024-02-23T01:25:51;1.33;;;0.77;;
317;SDS011;146;53.448;10.228;2024-02-23T01:28:38;0.60;;;0.60;;
317;SDS011;146;53.448;10.228;2024-02-23T01:31:25;0.90;;;0.70;;
317;SDS011;146;53.448;10.228;2024-02-23T01:34:12;2.60;;;0.90;;
317;SDS011;146;53.448;10.228;2024-02-23T01:37:01;0.80;;;0.80;;
317;SDS011;146;53.448;10.228;2024-02-23T01:39:48;0.70;;;0.70;;
317;SDS011;146;53.448;10.228;2024-02-23T01:42:35;0.87;;;0.87;;
317;SDS011;146;53.448;10.228;2024-02-23T01:45:22;0.80;;;0.80;;
317;SDS011;146;53.448;10.228;2024-02-23T01:48:09;0.80;;;0.70;;
317;SDS011;146;53.448;10.228;2024-02-23T01:50:57;0.97;;;0.97;;
317;SDS011;146;53.448;10.228;2024-02-23T01:53:46;0.97;;;0.97;;
317;SDS011;146;53.448;10.228;2024-02-23T01:56:33;2.33;;;2.13;;
317;SDS011;146;53.448;10.228;2024-02-23T01:59:21;0.90;;;0.80;;
317;SDS011;146;53.448;10.228;2024-02-23T02:02:09;1.23;;;1.13;;
317;SDS011;146;53.448;10.228;2024-02-23T02:04:56;1.00;;;1.00;;
317;SDS011;146;53.448;10.228;2024-02-23T02:07:44;1.20;;;1.03;;
317;SDS011;146;53.448;10.228;2024-02-23T02:10:33;1.30;;;1.30;;
317;SDS011;146;53.448;10.228;2024-02-23T02:13:20;0.90;;;0.90;;
317;SDS011;146;53.448;10.228;2024-02-23T02:16:07;1.50;;;1.40;;
317;SDS011;146;53.448;10.228;2024-02-23T02:18:56;1.73;;;0.97;;
317;SDS011;146;53.448;10.228;2024-02-23T02:21:43;0.97;;;0.97;;
317;SDS011;146;53.448;10.228;2024-02-23T02:24:30;1.00;;;1.00;;
317;SDS011;146;53.448;10.228;2024-02-23T02:27:20;0.90;;;0.90;;
317;SDS011;146;53.448;10.228;2024-02-23T02:30:07;1.00;;;1.00;;
317;SDS011;146;53.448;10.228;2024-02-23T02:32:54;0.90;;;0.90;;
317;SDS011;146;53.448;10.228;2024-02-23T02:35:41;0.80;;;0.80;;
317;SDS011;146;53.448;10.228;2024-02-23T02:38:29;1.10;;;1.10;;
317;SDS011;146;53.448;10.228;2024-02-23T02:41:16;1.07;;;1.07;;
317;SDS011;146;53.448;10.228;2024-02-23T02:44:06;0.87;;;0.87;;
317;SDS011;146;53.448;10.228;2024-02-23T02:46:54;0.97;;;0.97;;
317;SDS011;146;53.448;10.228;2024-02-23T02:49:42;0.70;;;0.70;;
317;SDS011;146;53.448;10.228;2024-02-23T02:52:29;0.97;;;0.97;;
317;SDS011;146;53.448;10.228;2024-02-23T02:55:16;0.90;;;0.90;;
317;SDS011;146;53.448;10.228;2024-02-23T02:58:03;1.00;;;1.00;;
317;SDS011;146;53.448;10.228;2024-02-23T03:00:52;0.83;;;0.83;;
317;SDS011;146;53.448;10.228;2024-02-23T03:03:39;1.13;;;1.00;;
317;SDS011;146;53.448;10.228;2024-02-23T03:06:26;1.17;;;1.13;;
317;SDS011;146;53.448;10.228;2024-02-23T03:09:13;1.10;;;1.10;;
317;SDS011;146;53.448;10.228;2024-02-23T03:12:00;1.30;;;1.20;;
317;SDS011;146;53.448;10.228;2024-02-23T03:14:47;1.40;;;1.30;;
317;SDS011;146;53.448;10.228;2024-02-23T03:17:36;0.97;;;0.97;;
317;SDS011;146;53.448;10.228;2024-02-23T03:20:23;1.17;;;1.10;;
317;SDS011;146;53.448;10.228;2024-02-23T03:23:10;0.90;;;0.90;;
317;SDS011;146;53.448;10.228;2024-02-23T03:25:57;1.33;;;0.87;;
317;SDS011;146;53.448;10.228;2024-02-23T03:28:45;0.63;;;0.63;;
317;SDS011;146;53.448;10.228;2024-02-23T03:31:32;1.87;;;0.97;;
317;SDS011;146;53.448;10.228;2024-02-23T03:34:20;0.70;;;0.70;;
317;SDS011;146;53.448;10.228;2024-02-23T03:37:08;0.70;;;0.60;;
317;SDS011;146;53.448;10.228;2024-02-23T03:39:57;0.67;;;0.67;;
317;SDS011;146;53.448;10.228;2024-02-23T03:42:45;0.70;;;0.60;;
317;SDS011;146;53.448;10.228;2024-02-23T03:45:32;0.50;;;0.50;;
317;SDS011;146;53.448;10.228;2024-02-23T03:48:19;0.53;;;0.50;;
317;SDS011;146;53.448;10.228;2024-02-23T03:51:08;0.40;;;0.40;;
317;SDS011;146;53.448;10.228;2024-02-23T03:53:55;0.67;;;0.50;;
317;SDS011;146;53.448;10.228;2024-02-23T03:56:42;0.60;;;0.50;;
317;SDS011;146;53.448;10.228;2024-02-23T03:59:29;0.47;;;0.47;;
317;SDS011;146;53.448;10.228;2024-02-23T04:02:16;1.93;;;0.50;;
317;SDS011;146;53.448;10.228;2024-02-23T04:05:04;0.50;;;0.50;;
317;SDS011;146;53.448;10.228;2024-02-23T04:07:53;0.50;;;0.50;;
317;SDS011;146;53.448;10.228;2024-02-23T04:10:40;0.60;;;0.60;;
317;SDS011;146;53.448;10.228;2024-02-23T04:13:27;0.70;;;0.70;;
317;SDS011;146;53.448;10.228;2024-02-23T04:16:14;0.60;;;0.60;;
317;SDS011;146;53.448;10.228;2024-02-23T04:19:01;0.70;;;0.70;;
317;SDS011;146;53.448;10.228;2024-02-23T04:21:48;0.77;;;0.60;;
317;SDS011;146;53.448;10.228;2024-02-23T04:24:37;0.50;;;0.50;;
317;SDS011;146;53.448;10.228;2024-02-23T04:27:28;0.60;;;0.60;;
317;SDS011;146;53.448;10.228;2024-02-23T04:30:15;0.60;;;0.60;;
317;SDS011;146;53.448;10.228;2024-02-23T04:33:02;0.63;;;0.63;;
317;SDS011;146;53.448;10.228;2024-02-23T04:35:50;1.27;;;0.60;;
317;SDS011;146;53.448;10.228;2024-02-23T04:38:37;0.70;;;0.70;;
317;SDS011;146;53.448;10.228;2024-02-23T04:41:25;0.90;;;0.70;;
317;SDS011;146;53.448;10.228;2024-02-23T04:44:13;0.87;;;0.67;;
317;SDS011;146;53.448;10.228;2024-02-23T04:47:00;1.50;;;0.93;;
317;SDS011;146;53.448;10.228;2024-02-23T04:49:47;1.43;;;1.33;;
317;SDS011;146;53.448;10.228;2024-02-23T04:52:35;2.00;;;0.80;;
317;SDS011;146;53.448;10.228;2024-02-23T04:55:22;1.27;;;1.03;;
317;SDS011;146;53.448;10.228;2024-02-23T04:58:10;2.90;;;1.67;;
317;SDS011;146;53.448;10.228;2024-02-23T05:00:58;3.13;;;1.87;;
317;SDS011;146;53.448;10.228;2024-02-23T05:03:45;3.33;;;1.43;;
317;SDS011;146;53.448;10.228;2024-02-23T05:06:32;2.70;;;1.30;;
317;SDS011;146;53.448;10.228;2024-02-23T05:09:19;4.23;;;2.00;;
317;SDS011;146;53.448;10.228;2024-02-23T05:12:07;1.80;;;1.70;;
317;SDS011;146;53.448;10.228;2024-02-23T05:14:56;2.80;;;1.43;;
317;SDS011;146;53.448;10.228;2024-02-23T05:17:43;1.43;;;1.33;;
317;SDS011;146;53.448;10.228;2024-02-23T05:20:34;2.47;;;1.90;;
317;SDS011;146;53.448;10.228;2024-02-23T05:23:21;2.93;;;1.63;;
317;SDS011;146;53.448;10.228;2024-02-23T05:26:08;2.80;;;2.30;;
317;SDS011;146;53.448;10.228;2024-02-23T05:28:56;1.87;;;1.53;;
317;SDS011;146;53.448;10.228;2024-02-23T05:31:45;2.10;;;1.90;;
317;SDS011;146;53.448;10.228;2024-02-23T05:34:33;2.70;;;1.77;;
317;SDS011;146;53.448;10.228;2024-02-23T05:37:20;1.50;;;1.40;;
317;SDS011;146;53.448;10.228;2024-02-23T05:40:08;2.10;;;1.80;;
317;SDS011;146;53.448;10.228;2024-02-23T05:42:56;2.27;;;2.17;;
317;SDS011;146;53.448;10.228;2024-02-23T05:45:43;2.17;;;1.30;;
317;SDS011;146;53.448;10.228;2024-02-23T05:48:32;2.90;;;2.43;;
317;SDS011;146;53.448;10.228;2024-02-23T05:51:19;1.90;;;1.80;;
317;SDS011;146;53.448;10.228;2024-02-23T05:54:06;2.50;;;1.80;;
317;SDS011;146;53.448;10.228;2024-02-23T05:56:54;4.10;;;2.20;;
317;SDS011;146;53.448;10.228;2024-02-23T05:59:41;1.70;;;1.40;;
317;SDS011;146;53.448;10.228;2024-02-23T06:02:28;3.63;;;1.70;;
317;SDS011;146;53.448;10.228;2024-02-23T06:05:17;1.90;;;1.73;;
317;SDS011;146;53.448;10.228;2024-02-23T06:08:04;1.50;;;1.37;;
317;SDS011;146;53.448;10.228;2024-02-23T06:10:52;1.53;;;1.27;;
317;SDS011;146;53.448;10.228;2024-02-23T06:13:39;2.87;;;1.50;;
317;SDS011;146;53.448;10.228;2024-02-23T06:16:26;3.10;;;1.77;;
317;SDS011;146;53.448;10.228;2024-02-23T06:19:13;1.80;;;1.57;;
317;SDS011;146;53.448;10.228;2024-02-23T06:22:02;1.63;;;1.53;;
317;SDS011;146;53.448;10.228;2024-02-23T06:24:49;1.57;;;1.47;;
317;SDS011;146;53.448;10.228;2024-02-23T06:27:36;5.60;;;1.50;;
317;SDS011;146;53.448;10.228;2024-02-23T06:30:24;2.50;;;2.10;;
317;SDS011;146;53.448;10.228;2024-02-23T06:33:11;2.23;;;2.10;;
317;SDS011;146;53.448;10.228;2024-02-23T06:35:58;2.23;;;2.00;;
317;SDS011;146;53.448;10.228;2024-02-23T06:38:47;2.07;;;1.97;;
317;SDS011;146;53.448;10.228;2024-02-23T06:41:34;2.40;;;2.17;;
317;SDS011;146;53.448;10.228;2024-02-23T06:44:24;1.93;;;1.83;;
317;SDS011;146;53.448;10.228;2024-02-23T06:47:11;4.10;;;2.43;;
317;SDS011;146;53.448;10.228;2024-02-23T06:49:58;2.30;;;2.10;;
317;SDS011;146;53.448;10.228;2024-02-23T06:52:45;3.10;;;2.20;;
317;SDS011;146;53.448;10.228;2024-02-23T06:55:35;2.57;;;2.40;;
317;SDS011;146;53.448;10.228;2024-02-23T06:58:22;3.63;;;3.17;;
317;SDS011;146;53.448;10.228;2024-02-23T07:01:09;2.70;;;2.53;;
317;SDS011;146;53.448;10.228;2024-02-23T07:04:01;3.80;;;2.93;;
317;SDS011;146;53.448;10.228;2024-02-23T07:07:00;3.20;;;2.83;;
317;SDS011;146;53.448;10.228;2024-02-23T07:09:52;3.57;;;3.27;;
317;SDS011;146;53.448;10.228;2024-02-23T07:12:42;3.10;;;2.63;;
317;SDS011;146;53.448;10.228;2024-02-23T07:15:29;2.97;;;2.70;;
317;SDS011;146;53.448;10.228;2024-02-23T07:18:18;2.87;;;2.67;;
317;SDS011;146;53.448;10.228;2024-02-23T07:21:06;4.97;;;3.10;;
317;SDS011;146;53.448;10.228;2024-02-23T07:24:08;3.60;;;2.77;;
317;SDS011;146;53.448;10.228;2024-02-23T07:26:58;2.97;;;2.67;;
317;SDS011;146;53.448;10.228;2024-02-23T07:29:47;2.73;;;2.40;;
317;SDS011;146;53.448;10.228;2024-02-23T07:32:35;3.63;;;3.07;;
317;SDS011;146;53.448;10.228;2024-02-23T07:35:22;4.73;;;2.67;;
317;SDS011;146;53.448;10.228;2024-02-23T07:38:09;3.03;;;2.13;;
317;SDS011;146;53.448;10.228;2024-02-23T07:40:58;2.87;;;2.50;;
317;SDS011;146;53.448;10.228;2024-02-23T07:43:45;5.00;;;2.77;;
317;SDS011;146;53.448;10.228;2024-02-23T07:46:34;2.70;;;1.97;;
317;SDS011;146;53.448;10.228;2024-02-23T07:49:21;2.60;;;1.90;;
317;SDS011;146;53.448;10.228;2024-02-23T07:52:08;6.80;;;2.23;;
317;SDS011;146;53.448;10.228;2024-02-23T07:54:55;2.73;;;2.07;;
317;SDS011;146;53.448;10.228;2024-02-23T07:57:43;2.40;;;2.20;;
317;SDS011;146;53.448;10.228;2024-02-23T08:00:30;4.87;;;1.77;;
317;SDS011;146;53.448;10.228;2024-02-23T08:03:19;3.03;;;2.10;;
317;SDS011;146;53.448;10.228;2024-02-23T08:06:06;2.40;;;1.77;;
317;SDS011;146;53.448;10.228;2024-02-23T08:08:53;3.43;;;2.13;;
317;SDS011;146;53.448;10.228;2024-02-23T08:11:40;2.00;;;1.80;;
317;SDS011;146;53.448;10.228;2024-02-23T08:14:27;5.77;;;2.90;;
317;SDS011;146;53.448;10.228;2024-02-23T08:17:14;4.40;;;2.90;;
317;SDS011;146;53.448;10.228;2024-02-23T08:20:03;2.30;;;2.10;;
317;SDS011;146;53.448;10.228;2024-02-23T08:22:51;3.67;;;2.00;;
317;SDS011;146;53.448;10.228;2024-02-23T08:25:38;4.53;;;2.40;;
317;SDS011;146;53.448;10.228;2024-02-23T08:28:25;6.00;;;2.10;;
317;SDS011;146;53.448;10.228;2024-02-23T08:31:12;2.57;;;2.17;;
317;SDS011;146;53.448;10.228;2024-02-23T08:37:13;2.10;;;1.90;;
317;SDS011;146;53.448;10.228;2024-02-23T08:40:00;2.03;;;1.60;;
317;SDS011;146;53.448;10.228;2024-02-23T08:42:47;3.53;;;2.20;;
317;SDS011;146;53.448;10.228;2024-02-23T08:45:35;2.67;;;2.00;;
317;SDS011;146;53.448;10.228;2024-02-23T08:48:22;1.80;;;1.70;;
317;SDS011;146;53.448;10.228;2024-02-23T08:51:09;2.67;;;2.10;;
317;SDS011;146;53.448;10.228;2024-02-23T08:53:58;3.63;;;2.00;;
317;SDS011;146;53.448;10.228;2024-02-23T08:57:17;4.77;;;1.93;;
317;SDS011;146;53.448;10.228;2024-02-23T09:00:05;2.13;;;1.60;;
317;SDS011;146;53.448;10.228;2024-02-23T09:02:53;2.40;;;1.87;;
317;SDS011;146;53.448;10.228;2024-02-23T09:05:41;3.00;;;1.73;;
317;SDS011;146;53.448;10.228;2024-02-23T09:08:28;4.30;;;1.70;;
317;SDS011;146;53.448;10.228;2024-02-23T09:11:18;3.60;;;2.03;;
317;SDS011;146;53.448;10.228;2024-02-23T09:14:05;2.20;;;1.70;;
317;SDS011;146;53.448;10.228;2024-02-23T09:16:53;5.80;;;3.03;;
317;SDS011;146;53.448;10.228;2024-02-23T09:19:43;2.57;;;1.60;;
317;SDS011;146;53.448;10.228;2024-02-23T09:22:30;3.90;;;2.17;;
317;SDS011;146;53.448;10.228;2024-02-23T09:25:17;3.37;;;2.00;;
317;SDS011;146;53.448;10.228;2024-02-23T09:28:09;3.83;;;2.30;;
317;SDS011;146;53.448;10.228;2024-02-23T09:30:56;2.30;;;1.63;;
317;SDS011;146;53.448;10.228;2024-02-23T09:33:44;2.40;;;1.93;;
317;SDS011;146;53.448;10.228;2024-02-23T09:36:32;2.57;;;1.73;;
317;SDS011;146;53.448;10.228;2024-02-23T09:39:19;5.70;;;2.23;;
317;SDS011;146;53.448;10.228;2024-02-23T09:42:06;2.87;;;2.00;;
317;SDS011;146;53.448;10.228;2024-02-23T09:44:58;3.70;;;2.17;;
317;SDS011;146;53.448;10.228;2024-02-23T09:47:46;5.97;;;1.90;;
317;SDS011;146;53.448;10.228;2024-02-23T09:50:34;2.60;;;1.70;;
317;SDS011;146;53.448;10.228;2024-02-23T09:53:23;2.00;;;1.90;;
317;SDS011;146;53.448;10.228;2024-02-23T09:56:10;4.57;;;2.03;;
317;SDS011;146;53.448;10.228;2024-02-23T09:59:03;4.77;;;2.13;;
317;SDS011;146;53.448;10.228;2024-02-23T10:01:51;2.13;;;1.90;;
317;SDS011;146;53.448;10.228;2024-02-23T10:04:39;3.13;;;2.00;;
317;SDS011;146;53.448;10.228;2024-02-23T10:07:28;4.43;;;2.30;;
317;SDS011;146;53.448;10.228;2024-02-23T10:10:16;2.87;;;2.13;;
317;SDS011;146;53.448;10.228;2024-02-23T10:13:12;2.90;;;1.80;;
317;SDS011;146;53.448;10.228;2024-02-23T10:15:59;4.93;;;1.80;;
317;SDS011;146;53.448;10.228;2024-02-23T10:18:47;2.80;;;1.53;;
317;SDS011;146;53.448;10.228;2024-02-23T10:21:34;2.10;;;1.70;;
317;SDS011;146;53.448;10.228;2024-02-23T10:27:50;4.60;;;1.63;;
317;SDS011;146;53.448;10.228;2024-02-23T10:34:02;1.93;;;1.37;;
317;SDS011;146;53.448;10.228;2024-02-23T10:36:54;2.40;;;1.53;;
317;SDS011;146;53.448;10.228;2024-02-23T10:42:56;3.40;;;1.60;;
317;SDS011;146;53.448;10.228;2024-02-23T10:45:48;2.57;;;1.63;;
317;SDS011;146;53.448;10.228;2024-02-23T10:48:36;3.63;;;1.70;;
317;SDS011;146;53.448;10.228;2024-02-23T10:51:25;2.83;;;1.67;;
317;SDS011;146;53.448;10.228;2024-02-23T10:54:16;3.50;;;1.30;;
317;SDS011;146;53.448;10.228;2024-02-23T10:57:05;2.20;;;1.67;;
317;SDS011;146;53.448;10.228;2024-02-23T10:59:53;3.07;;;1.30;;
317;SDS011;146;53.448;10.228;2024-02-23T11:02:42;2.80;;;1.60;;
317;SDS011;146;53.448;10.228;2024-02-23T11:05:32;1.90;;;1.23;;
317;SDS011;146;53.448;10.228;2024-02-23T11:08:20;2.13;;;1.10;;
317;SDS011;146;53.448;10.228;2024-02-23T11:11:17;1.27;;;1.17;;
317;SDS011;146;53.448;10.228;2024-02-23T11:14:06;2.63;;;1.40;;
317;SDS011;146;53.448;10.228;2024-02-23T11:16:55;1.50;;;1.33;;
317;SDS011;146;53.448;10.228;2024-02-23T11:19:42;3.60;;;1.37;;
317;SDS011;146;53.448;10.228;2024-02-23T11:22:35;2.30;;;1.27;;
317;SDS011;146;53.448;10.228;2024-02-23T11:25:27;2.33;;;1.20;;
317;SDS011;146;53.448;10.228;2024-02-23T11:28:23;4.30;;;1.03;;
317;SDS011;146;53.448;10.228;2024-02-23T11:31:11;2.00;;;1.33;;
317;SDS011;146;53.448;10.228;2024-02-23T11:34:01;2.17;;;1.53;;
317;SDS011;146;53.448;10.228;2024-02-23T11:36:50;4.80;;;1.30;;
317;SDS011;146;53.448;10.228;2024-02-23T11:39:38;2.23;;;1.40;;
317;SDS011;146;53.448;10.228;2024-02-23T11:42:27;1.37;;;0.97;;
317;SDS011;146;53.448;10.228;2024-02-23T11:45:16;3.67;;;1.40;;
317;SDS011;146;53.448;10.228;2024-02-23T11:51:41;1.77;;;1.13;;
317;SDS011;146;53.448;10.228;2024-02-23T11:54:46;1.30;;;1.20;;
317;SDS011;146;53.448;10.228;2024-02-23T11:57:35;4.10;;;1.93;;
317;SDS011;146;53.448;10.228;2024-02-23T12:00:24;7.30;;;3.50;;
317;SDS011;146;53.448;10.228;2024-02-23T12:03:13;4.07;;;2.23;;
317;SDS011;146;53.448;10.228;2024-02-23T12:06:00;3.20;;;2.50;;
317;SDS011;146;53.448;10.228;2024-02-23T12:08:48;6.60;;;3.13;;
317;SDS011;146;53.448;10.228;2024-02-23T12:11:35;4.17;;;1.40;;
317;SDS011;146;53.448;10.228;2024-02-23T12:14:25;1.13;;;0.97;;
317;SDS011;146;53.448;10.228;2024-02-23T12:17:12;1.70;;;0.97;;
317;SDS011;146;53.448;10.228;2024-02-23T12:20:01;3.03;;;1.10;;
317;SDS011;146;53.448;10.228;2024-02-23T12:22:50;1.97;;;1.00;;
317;SDS011;146;53.448;10.228;2024-02-23T12:25:43;1.50;;;1.40;;
317;SDS011;146;53.448;10.228;2024-02-23T12:28:39;4.77;;;1.40;;
317;SDS011;146;53.448;10.228;2024-02-23T12:31:27;3.30;;;1.77;;
317;SDS011;146;53.448;10.228;2024-02-23T12:34:14;2.80;;;1.30;;
317;SDS011;146;53.448;10.228;2024-02-23T12:37:02;1.90;;;1.80;;
317;SDS011;146;53.448;10.228;2024-02-23T12:39:50;1.70;;;1.60;;
317;SDS011;146;53.448;10.228;2024-02-23T12:42:37;1.60;;;1.27;;
317;SDS011;146;53.448;10.228;2024-02-23T12:45:25;1.47;;;1.37;;
317;SDS011;146;53.448;10.228;2024-02-23T12:48:13;2.90;;;1.63;;
317;SDS011;146;53.448;10.228;2024-02-23T12:51:00;1.20;;;1.10;;
317;SDS011;146;53.448;10.228;2024-02-23T12:54:00;1.90;;;1.30;;
317;SDS011;146;53.448;10.228;2024-02-23T12:56:47;1.17;;;1.07;;
317;SDS011;146;53.448;10.228;2024-02-23T12:59:35;1.00;;;0.90;;
317;SDS011;146;53.448;10.228;2024-02-23T13:02:22;1.00;;;0.90;;
317;SDS011;146;53.448;10.228;2024-02-23T13:05:10;3.70;;;1.23;;
317;SDS011;146;53.448;10.228;2024-02-23T13:07:57;1.67;;;0.90;;
317;SDS011;146;53.448;10.228;2024-02-23T13:10:44;1.33;;;1.00;;
317;SDS011;146;53.448;10.228;2024-02-23T13:13:32;1.03;;;0.97;;
317;SDS011;146;53.448;10.228;2024-02-23T13:16:19;1.60;;;1.00;;
317;SDS011;146;53.448;10.228;2024-02-23T13:19:06;1.33;;;0.60;;
317;SDS011;146;53.448;10.228;2024-02-23T13:21:56;1.43;;;0.87;;
317;SDS011;146;53.448;10.228;2024-02-23T13:24:45;1.73;;;1.00;;
317;SDS011;146;53.448;10.228;2024-02-23T13:27:32;0.60;;;0.60;;
317;SDS011;146;53.448;10.228;2024-02-23T13:30:19;2.47;;;1.57;;
317;SDS011;146;53.448;10.228;2024-02-23T13:33:07;1.13;;;1.00;;
317;SDS011;146;53.448;10.228;2024-02-23T13:35:56;2.10;;;0.70;;
317;SDS011;146;53.448;10.228;2024-02-23T13:38:44;1.47;;;0.93;;
317;SDS011;146;53.448;10.228;2024-02-23T13:41:31;1.20;;;1.10;;
317;SDS011;146;53.448;10.228;2024-02-23T13:44:19;1.23;;;0.90;;
317;SDS011;146;53.448;10.228;2024-02-23T13:47:07;2.10;;;0.70;;
317;SDS011;146;53.448;10.228;2024-02-23T13:49:54;3.07;;;0.90;;
317;SDS011;146;53.448;10.228;2024-02-23T13:52:41;1.10;;;0.87;;
317;SDS011;146;53.448;10.228;2024-02-23T13:55:29;2.47;;;0.90;;
317;SDS011;146;53.448;10.228;2024-02-23T13:58:16;1.93;;;0.90;;
317;SDS011;146;53.448;10.228;2024-02-23T14:01:04;1.23;;;1.03;;
317;SDS011;146;53.448;10.228;2024-02-23T14:03:51;1.00;;;0.80;;
317;SDS011;146;53.448;10.228;2024-02-23T14:06:38;2.37;;;0.87;;
317;SDS011;146;53.448;10.228;2024-02-23T14:09:25;1.40;;;1.30;;
317;SDS011;146;53.448;10.228;2024-02-23T14:12:14;1.23;;;1.03;;
317;SDS011;146;53.448;10.228;2024-02-23T14:15:01;1.20;;;0.90;;
317;SDS011;146;53.448;10.228;2024-02-23T14:17:48;1.33;;;1.07;;
317;SDS011;146;53.448;10.228;2024-02-23T14:20:35;1.70;;;1.30;;
317;SDS011;146;53.448;10.228;2024-02-23T14:23:22;3.10;;;1.40;;
317;SDS011;146;53.448;10.228;2024-02-23T14:26:09;1.20;;;1.10;;
317;SDS011;146;53.448;10.228;2024-02-23T14:28:59;1.63;;;1.27;;
317;SDS011;146;53.448;10.228;2024-02-23T14:31:47;3.63;;;1.00;;
317;SDS011;146;53.448;10.228;2024-02-23T14:34:34;2.40;;;1.10;;
317;SDS011;146;53.448;10.228;2024-02-23T14:40:30;1.00;;;0.90;;
317;SDS011;146;53.448;10.228;2024-02-23T14:43:17;3.03;;;0.97;;
317;SDS011;146;53.448;10.228;2024-02-23T14:46:06;1.63;;;1.00;;
317;SDS011;146;53.448;10.228;2024-02-23T14:48:54;2.10;;;1.20;;
317;SDS011;146;53.448;10.228;2024-02-23T14:51:41;1.33;;;1.00;;
317;SDS011;146;53.448;10.228;2024-02-23T14:54:33;0.97;;;0.83;;
317;SDS011;146;53.448;10.228;2024-02-23T14:57:21;1.50;;;1.20;;
317;SDS011;146;53.448;10.228;2024-02-23T15:00:08;2.50;;;1.23;;
317;SDS011;146;53.448;10.228;2024-02-23T15:02:57;1.00;;;0.80;;
317;SDS011;146;53.448;10.228;2024-02-23T15:05:44;1.03;;;0.93;;
317;SDS011;146;53.448;10.228;2024-02-23T15:08:31;1.43;;;0.87;;
317;SDS011;146;53.448;10.228;2024-02-23T15:11:19;2.20;;;1.20;;
317;SDS011;146;53.448;10.228;2024-02-23T15:14:06;1.40;;;1.30;;
317;SDS011;146;53.448;10.228;2024-02-23T15:16:54;1.60;;;0.97;;
317;SDS011;146;53.448;10.228;2024-02-23T15:19:43;1.87;;;1.37;;
317;SDS011;146;53.448;10.228;2024-02-23T15:22:30;1.50;;;1.40;;
317;SDS011;146;53.448;10.228;2024-02-23T15:25:17;1.63;;;0.97;;
317;SDS011;146;53.448;10.228;2024-02-23T15:28:04;2.40;;;0.87;;
317;SDS011;146;53.448;10.228;2024-02-23T15:30:51;1.53;;;0.70;;
317;SDS011;146;53.448;10.228;2024-02-23T15:33:38;0.87;;;0.63;;
317;SDS011;146;53.448;10.228;2024-02-23T15:36:27;1.93;;;1.10;;
317;SDS011;146;53.448;10.228;2024-02-23T15:39:14;1.07;;;0.70;;
317;SDS011;146;53.448;10.228;2024-02-23T15:42:01;1.40;;;0.70;;
317;SDS011;146;53.448;10.228;2024-02-23T15:44:49;1.33;;;1.03;;
317;SDS011;146;53.448;10.228;2024-02-23T15:47:36;1.47;;;0.90;;
317;SDS011;146;53.448;10.228;2024-02-23T15:50:23;2.23;;;1.20;;
317;SDS011;146;53.448;10.228;2024-02-23T15:53:14;3.03;;;1.07;;
317;SDS011;146;53.448;10.228;2024-02-23T15:56:01;1.83;;;0.80;;
317;SDS011;146;53.448;10.228;2024-02-23T15:58:48;1.20;;;0.97;;
317;SDS011;146;53.448;10.228;2024-02-23T16:01:35;1.40;;;1.07;;
317;SDS011;146;53.448;10.228;2024-02-23T16:04:23;2.10;;;1.17;;
317;SDS011;146;53.448;10.228;2024-02-23T16:07:10;4.27;;;1.10;;
317;SDS011;146;53.448;10.228;2024-02-23T16:10:00;1.87;;;1.00;;
317;SDS011;146;53.448;10.228;2024-02-23T16:12:49;0.80;;;0.80;;
317;SDS011;146;53.448;10.228;2024-02-23T16:15:36;1.67;;;0.90;;
317;SDS011;146;53.448;10.228;2024-02-23T16:18:23;2.13;;;0.93;;
317;SDS011;146;53.448;10.228;2024-02-23T16:21:10;0.83;;;0.80;;
317;SDS011;146;53.448;10.228;2024-02-23T16:24:01;0.80;;;0.80;;
317;SDS011;146;53.448;10.228;2024-02-23T16:26:50;2.37;;;0.80;;
317;SDS011;146;53.448;10.228;2024-02-23T16:29:37;2.33;;;1.07;;
317;SDS011;146;53.448;10.228;2024-02-23T16:32:25;0.80;;;0.67;;
317;SDS011;146;53.448;10.228;2024-02-23T16:35:12;2.10;;;0.97;;
317;SDS011;146;53.448;10.228;2024-02-23T16:38:03;1.90;;;0.80;;
317;SDS011;146;53.448;10.228;2024-02-23T16:40:50;0.80;;;0.70;;
317;SDS011;146;53.448;10.228;2024-02-23T16:43:38;1.47;;;1.00;;
317;SDS011;146;53.448;10.228;2024-02-23T16:46:25;1.33;;;0.97;;
317;SDS011;146;53.448;10.228;2024-02-23T16:49:13;1.70;;;0.80;;
317;SDS011;146;53.448;10.228;2024-02-23T16:52:00;1.23;;;1.00;;
317;SDS011;146;53.448;10.228;2024-02-23T16:54:47;1.90;;;0.83;;
317;SDS011;146;53.448;10.228;2024-02-23T16:57:34;1.20;;;0.90;;
317;SDS011;146;53.448;10.228;2024-02-23T17:00:23;1.43;;;1.10;;
317;SDS011;146;53.448;10.228;2024-02-23T17:03:11;1.20;;;1.10;;
317;SDS011;146;53.448;10.228;2024-02-23T17:05:58;1.73;;;1.10;;
317;SDS011;146;53.448;10.228;2024-02-23T17:08:47;1.73;;;1.00;;
317;SDS011;146;53.448;10.228;2024-02-23T17:11:36;2.60;;;1.03;;
317;SDS011;146;53.448;10.228;2024-02-23T17:14:23;3.40;;;1.17;;
317;SDS011;146;53.448;10.228;2024-02-23T17:17:12;1.83;;;1.40;;
317;SDS011;146;53.448;10.228;2024-02-23T17:19:59;2.30;;;1.00;;
317;SDS011;146;53.448;10.228;2024-02-23T17:22:46;2.77;;;1.17;;
317;SDS011;146;53.448;10.228;2024-02-23T17:25:48;1.83;;;1.00;;
317;SDS011;146;53.448;10.228;2024-02-23T17:28:36;2.87;;;1.23;;
317;SDS011;146;53.448;10.228;2024-02-23T17:31:43;1.33;;;0.70;;
317;SDS011;146;53.448;10.228;2024-02-23T17:34:31;2.03;;;0.90;;
317;SDS011;146;53.448;10.228;2024-02-23T17:37:18;1.23;;;1.10;;
317;SDS011;146;53.448;10.228;2024-02-23T17:40:07;1.83;;;1.40;;
317;SDS011;146;53.448;10.228;2024-02-23T17:42:56;0.83;;;0.83;;
317;SDS011;146;53.448;10.228;2024-02-23T17:45:43;1.53;;;1.20;;
317;SDS011;146;53.448;10.228;2024-02-23T17:48:30;2.30;;;1.13;;
317;SDS011;146;53.448;10.228;2024-02-23T17:55:01;1.87;;;1.20;;
317;SDS011;146;53.448;10.228;2024-02-23T18:01:32;3.20;;;1.37;;
317;SDS011;146;53.448;10.228;2024-02-23T18:04:19;1.23;;;1.13;;
317;SDS011;146;53.448;10.228;2024-02-23T18:07:08;1.37;;;1.27;;
317;SDS011;146;53.448;10.228;2024-02-23T18:09:55;1.93;;;1.53;;
317;SDS011;146;53.448;10.228;2024-02-23T18:12:47;1.90;;;1.20;;
317;SDS011;146;53.448;10.228;2024-02-23T18:15:34;1.93;;;1.30;;